createdAt,value
2024-01-05T00:01:58.409Z,6.21
2024-01-05T00:04:55.291Z,6.48
2024-01-05T00:07:52.134Z,6.62
2024-01-05T00:10:48.996Z,6.00
2024-01-05T00:13:49.337Z,6.23
2024-01-05T00:16:46.389Z,6.47
2024-01-05T00:19:43.299Z,5.78
2024-01-05T00:22:40.257Z,6.32
2024-01-05T00:25:37.100Z,5.87
2024-01-05T00:28:33.967Z,5.79
2024-01-05T00:31:30.994Z,6.36
2024-01-05T00:34:28.162Z,6.05
2024-01-05T00:37:25.095Z,6.46
2024-01-05T00:40:22.006Z,6.21
2024-01-05T00:43:18.851Z,6.14
2024-01-05T00:46:15.925Z,6.02
2024-01-05T00:49:12.964Z,6.24
2024-01-05T00:52:09.943Z,6.46
2024-01-05T00:55:06.946Z,6.44
2024-01-05T00:58:04.607Z,6.28
2024-01-05T01:01:01.641Z,6.57
2024-01-05T01:03:58.709Z,6.60
2024-01-05T01:06:55.645Z,6.62
2024-01-05T01:09:52.517Z,6.28
2024-01-05T01:12:49.374Z,6.25
2024-01-05T01:15:46.207Z,6.10
2024-01-05T01:18:43.883Z,6.05
2024-01-05T01:21:40.979Z,6.48
2024-01-05T01:24:37.916Z,6.22
2024-01-05T01:27:35.523Z,6.15
2024-01-05T01:30:32.554Z,6.32
2024-01-05T01:33:29.548Z,6.02
2024-01-05T01:36:26.908Z,6.50
2024-01-05T01:39:23.831Z,6.39
2024-01-05T01:42:20.828Z,6.53
2024-01-05T01:45:17.816Z,6.53
2024-01-05T01:48:18.601Z,6.74
2024-01-05T01:51:15.583Z,6.67
2024-01-05T01:54:12.599Z,6.21
2024-01-05T01:57:09.969Z,6.67
2024-01-05T02:00:08.447Z,6.66
2024-01-05T02:03:05.804Z,6.48
2024-01-05T02:06:02.729Z,6.45
2024-01-05T02:08:59.650Z,6.73
2024-01-05T02:11:56.756Z,6.31
2024-01-05T02:14:53.706Z,6.55
2024-01-05T02:17:50.643Z,6.56
2024-01-05T02:20:48.564Z,6.29
2024-01-05T02:23:45.438Z,6.84
2024-01-05T02:26:42.681Z,7.08
2024-01-05T02:29:39.718Z,6.80
2024-01-05T02:32:36.608Z,7.00
2024-01-05T02:35:33.503Z,6.91
2024-01-05T02:38:30.386Z,6.53
2024-01-05T02:41:27.407Z,6.20
2024-01-05T02:44:24.405Z,6.68
2024-01-05T02:47:21.295Z,7.05
2024-01-05T02:50:19.607Z,6.78
2024-01-05T02:53:16.456Z,6.46
2024-01-05T02:56:22.117Z,6.73
2024-01-05T02:59:20.197Z,6.99
2024-01-05T03:02:17.099Z,6.74
2024-01-05T03:05:14.139Z,6.63
2024-01-05T03:08:11.102Z,6.81
2024-01-05T03:11:07.975Z,6.80
2024-01-05T03:14:04.957Z,6.47
2024-01-05T03:17:03.558Z,6.60
2024-01-05T03:20:00.577Z,6.52
2024-01-05T03:22:57.695Z,6.38
2024-01-05T03:25:54.691Z,6.40
2024-01-05T03:28:54.014Z,6.49
2024-01-05T03:31:50.875Z,6.53
2024-01-05T03:34:47.739Z,6.28
2024-01-05T03:37:44.615Z,6.75
2024-01-05T03:40:41.467Z,6.53
2024-01-05T03:43:38.341Z,6.61
2024-01-05T03:46:35.198Z,6.59
2024-01-05T03:49:32.101Z,6.40
2024-01-05T03:52:29.128Z,6.20
2024-01-05T03:55:26.013Z,6.63
2024-01-05T03:58:22.871Z,6.12
2024-01-05T04:01:19.750Z,6.51
2024-01-05T04:04:17.257Z,6.61
2024-01-05T04:07:14.338Z,6.48
2024-01-05T04:10:11.413Z,6.99
2024-01-05T04:13:09.111Z,6.41
2024-01-05T04:16:08.136Z,6.20
2024-01-05T04:19:05.183Z,6.52
2024-01-05T04:22:02.170Z,6.88
2024-01-05T04:25:00.229Z,6.58
2024-01-05T04:27:58.965Z,6.45
2024-01-05T04:30:55.910Z,6.33
2024-01-05T04:33:53.453Z,6.46
2024-01-05T04:36:50.392Z,6.34
2024-01-05T04:39:47.245Z,6.37
2024-01-05T04:42:44.132Z,6.50
2024-01-05T04:45:41.617Z,6.41
2024-01-05T04:48:38.802Z,6.76
2024-01-05T04:51:36.184Z,6.56
2024-01-05T04:54:33.141Z,6.71
2024-01-05T04:57:30.136Z,6.42
2024-01-05T05:00:27.130Z,6.44
2024-01-05T05:03:26.129Z,6.23
2024-01-05T05:06:23.063Z,6.46
2024-01-05T05:09:19.944Z,6.08
2024-01-05T05:12:16.946Z,6.45
2024-01-05T05:15:13.862Z,6.49
2024-01-05T05:18:10.973Z,6.37
2024-01-05T05:21:08.174Z,6.16
2024-01-05T05:24:05.129Z,6.49
2024-01-05T05:27:02.046Z,6.61
2024-01-05T05:29:58.992Z,6.37
2024-01-05T05:32:56.147Z,6.44
2024-01-05T05:35:53.212Z,6.21
2024-01-05T05:38:50.184Z,6.64
2024-01-05T05:41:47.172Z,6.44
2024-01-05T05:44:44.117Z,6.41
2024-01-05T05:47:41.578Z,6.35
2024-01-05T05:50:38.510Z,6.17
2024-01-05T05:53:35.384Z,6.21
2024-01-05T05:56:32.253Z,6.22
2024-01-05T05:59:29.141Z,6.28
2024-01-05T06:02:26.616Z,6.35
2024-01-05T06:05:23.584Z,6.46
2024-01-05T06:08:20.509Z,6.11
2024-01-05T06:11:17.796Z,6.10
2024-01-05T06:14:14.722Z,6.28
2024-01-05T06:17:11.578Z,6.03
2024-01-05T06:20:09.400Z,6.25
2024-01-05T06:23:06.365Z,6.15
2024-01-05T06:26:03.320Z,6.19
2024-01-05T06:29:00.229Z,6.49
2024-01-05T06:31:57.090Z,6.53
2024-01-05T06:34:54.051Z,6.37
2024-01-05T06:37:50.989Z,6.42
2024-01-05T06:40:47.849Z,5.99
2024-01-05T06:43:44.786Z,6.46
2024-01-05T06:46:41.646Z,6.34
2024-01-05T06:49:38.667Z,6.60
2024-01-05T06:52:35.900Z,6.22
2024-01-05T06:55:32.761Z,6.42
2024-01-05T06:58:30.532Z,6.11
2024-01-05T07:01:27.414Z,6.33
2024-01-05T07:04:24.570Z,6.10
2024-01-05T07:07:21.472Z,5.89
2024-01-05T07:10:18.374Z,5.99
2024-01-05T07:13:15.275Z,6.37
2024-01-05T07:16:22.949Z,6.05
2024-01-05T07:19:20.291Z,6.01
2024-01-05T07:22:17.507Z,6.12
2024-01-05T07:25:14.495Z,5.91
2024-01-05T07:28:11.398Z,5.62
2024-01-05T07:31:09.779Z,5.63
2024-01-05T07:34:06.997Z,5.79
2024-01-05T07:37:04.820Z,5.97
2024-01-05T07:40:01.788Z,5.99
2024-01-05T07:42:58.660Z,6.16
2024-01-05T07:45:55.659Z,5.74
2024-01-05T07:48:52.780Z,5.50
2024-01-05T07:51:50.111Z,5.51
2024-01-05T07:54:47.522Z,5.75
2024-01-05T07:57:48.313Z,5.82
2024-01-05T08:00:45.768Z,5.93
2024-01-05T08:03:43.183Z,5.69
2024-01-05T08:06:40.085Z,5.54
2024-01-05T08:09:37.005Z,5.67
2024-01-05T08:12:34.043Z,6.01
2024-01-05T08:15:31.350Z,5.60
2024-01-05T08:18:28.358Z,5.37
2024-01-05T08:21:25.337Z,5.48
2024-01-05T08:24:22.916Z,5.50
2024-01-05T08:27:20.021Z,5.70
2024-01-05T08:30:17.083Z,5.62
2024-01-05T08:33:15.139Z,5.42
2024-01-05T08:36:12.176Z,5.72
2024-01-05T08:39:09.197Z,5.72
2024-01-05T08:42:06.647Z,5.75
2024-01-05T08:45:03.818Z,5.63
2024-01-05T08:48:01.488Z,5.72
2024-01-05T08:50:58.426Z,5.34
2024-01-05T08:53:55.511Z,5.62
2024-01-05T08:56:52.451Z,5.47
2024-01-05T08:59:49.321Z,5.66
2024-01-05T09:02:46.297Z,5.57
2024-01-05T09:05:43.492Z,5.47
2024-01-05T09:08:40.431Z,5.66
2024-01-05T09:11:37.828Z,5.87
2024-01-05T09:14:34.776Z,5.69
2024-01-05T09:17:31.764Z,5.69
2024-01-05T09:20:28.623Z,6.28
2024-01-05T09:23:25.535Z,6.56
2024-01-05T09:26:22.463Z,5.98
2024-01-05T09:29:19.349Z,6.03
2024-01-05T09:32:17.018Z,5.92
2024-01-05T09:35:13.876Z,5.76
2024-01-05T09:38:10.770Z,5.66
2024-01-05T09:41:10.487Z,6.19
2024-01-05T09:44:07.883Z,6.04
2024-01-05T09:47:05.565Z,6.02
2024-01-05T09:50:06.082Z,6.03
2024-01-05T09:53:05.699Z,6.19
2024-01-05T09:56:04.843Z,6.08
2024-01-05T09:59:02.021Z,6.22
2024-01-05T10:02:03.794Z,6.25
2024-01-05T10:05:02.278Z,5.68
2024-01-05T10:07:59.254Z,5.85
2024-01-05T10:11:02.137Z,6.13
2024-01-05T10:14:01.624Z,5.56
2024-01-05T10:17:11.846Z,5.89
2024-01-05T10:20:14.997Z,6.22
2024-01-05T10:23:12.116Z,5.90
2024-01-05T10:26:18.059Z,5.79
2024-01-05T10:29:16.313Z,6.01
2024-01-05T10:32:14.010Z,6.27
2024-01-05T10:35:10.912Z,6.48
2024-01-05T10:38:12.384Z,6.22
2024-01-05T10:41:09.277Z,5.90
2024-01-05T10:44:06.762Z,5.70
2024-01-05T10:47:03.756Z,5.99
2024-01-05T10:50:01.078Z,6.02
2024-01-05T10:52:58.336Z,6.07
2024-01-05T10:55:58.140Z,5.99
2024-01-05T10:58:55.218Z,5.75
2024-01-05T11:01:52.865Z,5.99
2024-01-05T11:05:01.101Z,6.02
2024-01-05T11:08:02.041Z,6.17
2024-01-05T11:11:11.874Z,5.73
2024-01-05T11:14:40.542Z,5.91
2024-01-05T11:18:16.544Z,5.80
2024-01-05T11:21:24.075Z,5.87
2024-01-05T11:24:23.179Z,5.60
2024-01-05T11:27:35.479Z,5.91
2024-01-05T11:30:45.189Z,6.06
2024-01-05T11:33:50.576Z,6.16
2024-01-05T11:36:50.902Z,6.02
2024-01-05T11:39:51.067Z,6.50
2024-01-05T11:42:48.987Z,6.84
2024-01-05T11:45:45.959Z,6.65
2024-01-05T11:48:42.870Z,6.43
2024-01-05T11:51:39.810Z,6.66
2024-01-05T11:54:36.985Z,6.69
2024-01-05T11:57:33.922Z,6.62
2024-01-05T12:00:31.121Z,6.98
2024-01-05T12:03:31.654Z,6.96
2024-01-05T12:06:30.434Z,7.30
2024-01-05T12:09:27.509Z,7.48
2024-01-05T12:12:25.873Z,7.36
2024-01-05T12:15:24.185Z,7.02
2024-01-05T12:18:33.800Z,6.80
2024-01-05T12:21:34.723Z,6.71
2024-01-05T12:24:31.699Z,7.09
2024-01-05T12:27:37.637Z,6.77
2024-01-05T12:30:36.148Z,6.83
2024-01-05T12:33:39.175Z,7.11
2024-01-05T12:36:36.360Z,6.98
2024-01-05T12:39:33.311Z,7.20
2024-01-05T12:42:30.308Z,6.82
2024-01-05T12:45:27.793Z,7.23
2024-01-05T12:48:30.557Z,7.50
2024-01-05T12:51:27.505Z,7.74
2024-01-05T12:54:26.379Z,7.47
2024-01-05T12:57:23.671Z,7.28
2024-01-05T13:00:23.497Z,7.30
2024-01-05T13:03:20.499Z,7.64
2024-01-05T13:06:17.511Z,7.32
2024-01-05T13:09:14.427Z,7.32
2024-01-05T13:12:11.879Z,7.31
2024-01-05T13:15:09.327Z,7.11
2024-01-05T13:18:06.408Z,7.33
2024-01-05T13:21:04.306Z,7.32
2024-01-05T13:24:01.324Z,6.98
2024-01-05T13:26:59.428Z,7.85
2024-01-05T13:29:56.497Z,7.60
2024-01-05T13:32:54.319Z,7.38
2024-01-05T13:35:51.203Z,7.28
2024-01-05T13:38:49.373Z,7.31
2024-01-05T13:41:46.262Z,7.39
2024-01-05T13:44:43.111Z,7.37
2024-01-05T13:47:40.125Z,7.22
2024-01-05T13:50:37.007Z,7.52
2024-01-05T13:53:33.888Z,7.18
2024-01-05T13:56:31.689Z,7.46
2024-01-05T13:59:28.717Z,7.54
2024-01-05T14:02:26.756Z,7.44
2024-01-05T14:05:23.688Z,7.12
2024-01-05T14:08:23.312Z,7.07
2024-01-05T14:11:23.397Z,7.33
2024-01-05T14:14:20.261Z,7.19
2024-01-05T14:17:17.169Z,7.23
2024-01-05T14:20:14.377Z,7.51
2024-01-05T14:23:11.337Z,7.36
2024-01-05T14:26:11.574Z,7.44
2024-01-05T14:29:08.438Z,7.28
2024-01-05T14:32:05.545Z,7.35
2024-01-05T14:35:06.494Z,7.44
2024-01-05T14:38:03.961Z,7.24
2024-01-05T14:41:00.817Z,7.37
2024-01-05T14:43:57.705Z,7.21
2024-01-05T14:46:55.448Z,7.24
2024-01-05T14:49:52.597Z,6.91
2024-01-05T14:52:55.925Z,6.80
2024-01-05T14:56:00.984Z,7.33
2024-01-05T14:58:57.844Z,6.95
2024-01-05T15:01:56.523Z,6.92
2024-01-05T15:04:54.143Z,7.06
2024-01-05T15:07:51.175Z,6.83
2024-01-05T15:10:48.108Z,7.32
2024-01-05T15:13:44.970Z,7.07
2024-01-05T15:16:42.305Z,7.00
2024-01-05T15:19:41.089Z,6.83
2024-01-05T15:22:38.208Z,6.95
2024-01-05T15:25:35.075Z,6.89
2024-01-05T15:28:31.944Z,6.82
2024-01-05T15:31:29.384Z,7.06
2024-01-05T15:34:26.387Z,7.02
2024-01-05T15:37:23.320Z,6.84
2024-01-05T15:43:20.236Z,6.75
2024-01-05T15:46:18.113Z,7.06
2024-01-05T15:49:15.218Z,6.74
2024-01-05T15:52:12.144Z,7.08
2024-01-05T15:55:09.160Z,6.77
2024-01-05T15:58:06.061Z,6.71
2024-01-05T16:01:03.684Z,6.73
2024-01-05T16:04:00.851Z,6.59
2024-01-05T16:06:57.800Z,6.98
2024-01-05T16:09:54.754Z,6.95
2024-01-05T16:12:51.695Z,6.97
2024-01-05T16:15:48.748Z,6.82
2024-01-05T16:18:45.935Z,6.79
2024-01-05T16:21:43.705Z,6.77
2024-01-05T16:24:40.856Z,6.92
2024-01-05T16:27:37.835Z,6.76
2024-01-05T16:30:36.858Z,6.78
2024-01-05T16:33:34.909Z,6.72
2024-01-05T16:36:31.952Z,7.03
2024-01-05T16:39:29.105Z,6.99
2024-01-05T16:42:26.041Z,6.93
2024-01-05T16:45:22.935Z,7.02
2024-01-05T16:48:20.298Z,6.76
2024-01-05T16:51:17.805Z,6.81
2024-01-05T16:54:14.872Z,6.96
2024-01-05T16:57:13.635Z,7.12
2024-01-05T17:00:11.428Z,7.02
2024-01-05T17:03:10.572Z,6.98
2024-01-05T17:06:18.915Z,6.70
2024-01-05T17:12:13.846Z,6.93
2024-01-05T17:15:11.121Z,6.71
2024-01-05T17:18:08.301Z,6.66
2024-01-05T17:21:06.185Z,6.46
2024-01-05T17:24:03.716Z,6.46
2024-01-05T17:27:00.579Z,6.77
2024-01-05T17:29:57.463Z,6.78
2024-01-05T17:32:54.431Z,6.31
2024-01-05T17:35:52.192Z,6.44
2024-01-05T17:38:50.793Z,6.68
2024-01-05T17:41:47.655Z,6.65
2024-01-05T17:44:44.757Z,6.71
2024-01-05T17:47:41.689Z,6.32
2024-01-05T17:50:38.744Z,6.68
2024-01-05T17:53:37.832Z,6.66
2024-01-05T17:56:36.530Z,6.82
2024-01-05T17:59:34.626Z,6.60
2024-01-05T18:02:31.514Z,6.69
2024-01-05T18:05:28.728Z,6.24
2024-01-05T18:08:25.582Z,6.68
2024-01-05T18:11:26.872Z,6.27
2024-01-05T18:14:24.557Z,6.46
2024-01-05T18:17:21.409Z,6.53
2024-01-05T18:20:18.273Z,6.21
2024-01-05T18:23:17.617Z,6.31
2024-01-05T18:26:22.335Z,5.79
2024-01-05T18:29:25.305Z,5.95
2024-01-05T18:32:26.179Z,6.24
2024-01-05T18:35:23.082Z,6.01
2024-01-05T18:38:19.935Z,6.14
2024-01-05T18:41:30.684Z,6.23
2024-01-05T18:44:27.484Z,6.52
2024-01-05T18:47:24.435Z,6.51
2024-01-05T18:50:21.339Z,6.21
2024-01-05T18:53:18.288Z,6.38
2024-01-05T18:56:15.329Z,6.10
2024-01-05T18:59:12.219Z,6.20
2024-01-05T19:02:09.083Z,6.23
2024-01-05T19:05:06.752Z,6.28
2024-01-05T19:08:04.483Z,6.11
2024-01-05T19:11:04.111Z,5.98
2024-01-05T19:14:01.624Z,6.15
2024-01-05T19:16:59.310Z,6.15
2024-01-05T19:19:56.339Z,5.86
2024-01-05T19:22:54.661Z,6.27
2024-01-05T19:25:51.686Z,6.21
2024-01-05T19:28:48.545Z,5.69
2024-01-05T19:31:45.595Z,5.86
2024-01-05T19:34:42.741Z,6.23
2024-01-05T19:37:39.650Z,6.02
2024-01-05T19:40:37.292Z,5.98
2024-01-05T19:43:34.204Z,6.25
2024-01-05T19:46:31.297Z,6.09
2024-01-05T19:49:30.100Z,6.01
2024-01-05T19:52:27.085Z,6.02
2024-01-05T19:55:24.080Z,5.73
2024-01-05T19:58:21.001Z,5.58
2024-01-05T20:01:18.255Z,6.04
2024-01-05T20:04:17.260Z,5.85
2024-01-05T20:07:14.909Z,5.69
2024-01-05T20:10:12.097Z,5.49
2024-01-05T20:13:09.991Z,5.89
2024-01-05T20:16:07.514Z,5.68
2024-01-05T20:19:09.718Z,5.64
2024-01-05T20:22:07.331Z,5.49
2024-01-05T20:25:07.856Z,5.45
2024-01-05T20:28:10.011Z,5.52
2024-01-05T20:31:06.982Z,5.57
2024-01-05T20:34:06.072Z,5.39
2024-01-05T20:37:03.180Z,5.50
2024-01-05T20:40:00.153Z,5.80
2024-01-05T20:42:59.437Z,5.69
2024-01-05T20:45:56.314Z,5.59
2024-01-05T20:48:53.729Z,5.46
2024-01-05T20:51:51.519Z,5.39
2024-01-05T20:54:48.547Z,5.48
2024-01-05T20:57:45.564Z,5.56
2024-01-05T21:00:42.537Z,5.68
2024-01-05T21:03:39.515Z,5.64
2024-01-05T21:06:43.475Z,5.49
2024-01-05T21:09:40.740Z,5.35
2024-01-05T21:12:37.706Z,5.36
2024-01-05T21:15:34.686Z,5.32
2024-01-05T21:18:31.656Z,5.23
2024-01-05T21:21:29.879Z,5.21
2024-01-05T21:24:27.619Z,4.99
2024-01-05T21:27:24.780Z,5.15
2024-01-05T21:30:21.740Z,5.08
2024-01-05T21:33:18.815Z,4.77
2024-01-05T21:36:16.106Z,4.65
2024-01-05T21:39:17.459Z,4.87
2024-01-05T21:42:14.723Z,4.13
2024-01-05T21:45:11.665Z,4.47
2024-01-05T21:48:09.461Z,4.45
2024-01-05T21:51:06.414Z,4.69
2024-01-05T21:54:03.297Z,4.53
2024-01-05T21:57:02.988Z,4.70
2024-01-05T22:00:01.565Z,4.80
2024-01-05T22:02:58.686Z,4.77
2024-01-05T22:05:55.593Z,4.80
2024-01-05T22:08:54.327Z,4.52
2024-01-05T22:11:51.244Z,4.36
2024-01-05T22:14:49.130Z,4.29
2024-01-05T22:17:46.230Z,4.38
2024-01-05T22:20:43.466Z,4.13
2024-01-05T22:23:41.779Z,4.17
2024-01-05T22:26:38.888Z,4.19
2024-01-05T22:29:36.213Z,3.85
2024-01-05T22:32:33.135Z,4.04
2024-01-05T22:35:30.032Z,4.22
2024-01-05T22:38:29.420Z,4.00
2024-01-05T22:41:26.880Z,3.89
2024-01-05T22:44:23.740Z,3.78
2024-01-05T22:47:20.563Z,3.90
2024-01-05T22:50:18.219Z,3.94
2024-01-05T22:53:15.788Z,3.77
2024-01-05T22:56:12.728Z,3.69
2024-01-05T22:59:09.596Z,3.58
2024-01-05T23:02:06.475Z,3.60
2024-01-05T23:05:03.915Z,3.56
2024-01-05T23:08:00.791Z,3.51
2024-01-05T23:10:58.319Z,3.60
2024-01-05T23:13:55.193Z,3.55
2024-01-05T23:16:53.412Z,3.50
2024-01-05T23:19:51.145Z,3.31
2024-01-05T23:22:48.054Z,3.10
2024-01-05T23:25:44.937Z,3.31
2024-01-05T23:28:42.538Z,3.25
2024-01-05T23:31:41.549Z,2.70
2024-01-05T23:34:38.663Z,3.09
2024-01-05T23:37:35.763Z,3.37
2024-01-05T23:40:32.622Z,3.28
2024-01-05T23:43:29.503Z,3.18
2024-01-05T23:46:26.523Z,3.29
2024-01-05T23:49:23.510Z,3.26
2024-01-05T23:52:20.474Z,2.99
2024-01-05T23:55:17.531Z,3.11
2024-01-05T23:58:14.447Z,3.02
